sensor_id;sensor_type;location;lat;lon;timestamp;temperature;humidity
76613;DHT22;65507;48.454;-2.058;2023-03-23T00:00:57;13.50;76.40
76613;DHT22;65507;48.454;-2.058;2023-03-23T00:03:23;13.60;76.40
76613;DHT22;65507;48.454;-2.058;2023-03-23T00:05:51;13.60;76.30
76613;DHT22;65507;48.454;-2.058;2023-03-23T00:08:18;13.60;76.30
76613;DHT22;65507;48.454;-2.058;2023-03-23T00:10:49;13.60;76.30
76613;DHT22;65507;48.454;-2.058;2023-03-23T00:13:18;13.60;76.30
76613;DHT22;65507;48.454;-2.058;2023-03-23T00:15:45;13.60;76.30
76613;DHT22;65507;48.454;-2.058;2023-03-23T00:18:14;13.60;76.20
76613;DHT22;65507;48.454;-2.058;2023-03-23T00:20:47;13.60;76.20
76613;DHT22;65507;48.454;-2.058;2023-03-23T00:23:15;13.70;76.30
76613;DHT22;65507;48.454;-2.058;2023-03-23T00:25:47;13.70;76.30
76613;DHT22;65507;48.454;-2.058;2023-03-23T00:28:13;13.70;76.30
76613;DHT22;65507;48.454;-2.058;2023-03-23T00:30:39;13.60;76.30
76613;DHT22;65507;48.454;-2.058;2023-03-23T00:33:07;13.60;76.30
76613;DHT22;65507;48.454;-2.058;2023-03-23T00:35:33;13.60;76.30
76613;DHT22;65507;48.454;-2.058;2023-03-23T00:38:00;13.60;76.40
76613;DHT22;65507;48.454;-2.058;2023-03-23T00:40:25;13.70;76.40
76613;DHT22;65507;48.454;-2.058;2023-03-23T00:42:51;13.70;76.40
76613;DHT22;65507;48.454;-2.058;2023-03-23T00:45:17;13.70;76.40
76613;DHT22;65507;48.454;-2.058;2023-03-23T00:47:42;13.60;76.30
76613;DHT22;65507;48.454;-2.058;2023-03-23T00:50:12;13.70;76.40
76613;DHT22;65507;48.454;-2.058;2023-03-23T00:52:38;13.70;76.60
76613;DHT22;65507;48.454;-2.058;2023-03-23T00:55:03;13.60;76.40
76613;DHT22;65507;48.454;-2.058;2023-03-23T00:57:29;13.70;76.30
76613;DHT22;65507;48.454;-2.058;2023-03-23T00:59:55;13.70;76.30
76613;DHT22;65507;48.454;-2.058;2023-03-23T01:02:20;13.70;76.30
76613;DHT22;65507;48.454;-2.058;2023-03-23T01:04:50;13.70;76.20
76613;DHT22;65507;48.454;-2.058;2023-03-23T01:07:20;13.70;76.20
76613;DHT22;65507;48.454;-2.058;2023-03-23T01:09:46;13.70;76.20
76613;DHT22;65507;48.454;-2.058;2023-03-23T01:12:13;13.70;76.20
76613;DHT22;65507;48.454;-2.058;2023-03-23T01:14:40;13.70;76.20
76613;DHT22;65507;48.454;-2.058;2023-03-23T01:17:05;13.70;76.20
76613;DHT22;65507;48.454;-2.058;2023-03-23T01:19:31;13.70;76.20
76613;DHT22;65507;48.454;-2.058;2023-03-23T01:21:57;13.70;76.20
76613;DHT22;65507;48.454;-2.058;2023-03-23T01:24:22;13.70;76.20
76613;DHT22;65507;48.454;-2.058;2023-03-23T01:26:48;13.70;76.20
76613;DHT22;65507;48.454;-2.058;2023-03-23T01:29:13;13.70;76.20
76613;DHT22;65507;48.454;-2.058;2023-03-23T01:31:39;13.80;76.30
76613;DHT22;65507;48.454;-2.058;2023-03-23T01:34:04;13.70;76.20
76613;DHT22;65507;48.454;-2.058;2023-03-23T01:36:30;13.70;76.30
76613;DHT22;65507;48.454;-2.058;2023-03-23T01:38:58;13.70;76.50
76613;DHT22;65507;48.454;-2.058;2023-03-23T01:41:24;13.60;76.60
76613;DHT22;65507;48.454;-2.058;2023-03-23T01:43:53;13.60;76.70
76613;DHT22;65507;48.454;-2.058;2023-03-23T01:46:19;13.50;76.80
76613;DHT22;65507;48.454;-2.058;2023-03-23T01:48:47;13.50;76.90
76613;DHT22;65507;48.454;-2.058;2023-03-23T01:51:14;13.50;76.80
76613;DHT22;65507;48.454;-2.058;2023-03-23T01:53:48;13.50;76.90
76613;DHT22;65507;48.454;-2.058;2023-03-23T01:56:16;13.50;76.80
76613;DHT22;65507;48.454;-2.058;2023-03-23T01:58:44;13.50;76.80
76613;DHT22;65507;48.454;-2.058;2023-03-23T02:01:10;13.50;76.80
76613;DHT22;65507;48.454;-2.058;2023-03-23T02:03:37;13.50;76.80
76613;DHT22;65507;48.454;-2.058;2023-03-23T02:06:04;13.50;76.70
76613;DHT22;65507;48.454;-2.058;2023-03-23T02:08:30;13.50;76.80
76613;DHT22;65507;48.454;-2.058;2023-03-23T02:10:58;13.50;76.80
76613;DHT22;65507;48.454;-2.058;2023-03-23T02:13:23;13.50;76.90
76613;DHT22;65507;48.454;-2.058;2023-03-23T02:37:04;13.20;77.60
76613;DHT22;65507;48.454;-2.058;2023-03-23T02:39:32;13.20;77.50
76613;DHT22;65507;48.454;-2.058;2023-03-23T02:42:07;13.20;77.50
76613;DHT22;65507;48.454;-2.058;2023-03-23T02:44:33;13.20;77.50
76613;DHT22;65507;48.454;-2.058;2023-03-23T02:47:02;13.20;77.40
76613;DHT22;65507;48.454;-2.058;2023-03-23T02:49:29;13.20;77.40
76613;DHT22;65507;48.454;-2.058;2023-03-23T02:51:57;13.20;77.40
76613;DHT22;65507;48.454;-2.058;2023-03-23T02:54:24;13.30;77.40
76613;DHT22;65507;48.454;-2.058;2023-03-23T02:56:51;13.30;77.40
76613;DHT22;65507;48.454;-2.058;2023-03-23T02:59:17;13.30;77.30
76613;DHT22;65507;48.454;-2.058;2023-03-23T03:04:14;13.30;77.30
76613;DHT22;65507;48.454;-2.058;2023-03-23T03:06:45;13.30;77.20
76613;DHT22;65507;48.454;-2.058;2023-03-23T03:11:40;13.30;77.30
76613;DHT22;65507;48.454;-2.058;2023-03-23T03:14:08;13.30;77.30
76613;DHT22;65507;48.454;-2.058;2023-03-23T03:16:44;13.30;77.30
76613;DHT22;65507;48.454;-2.058;2023-03-23T03:19:20;13.30;77.20
76613;DHT22;65507;48.454;-2.058;2023-03-23T03:21:50;13.30;77.20
76613;DHT22;65507;48.454;-2.058;2023-03-23T03:24:18;13.30;77.20
76613;DHT22;65507;48.454;-2.058;2023-03-23T03:26:45;13.40;77.20
76613;DHT22;65507;48.454;-2.058;2023-03-23T03:29:26;13.40;77.20
76613;DHT22;65507;48.454;-2.058;2023-03-23T03:31:53;13.40;77.20
76613;DHT22;65507;48.454;-2.058;2023-03-23T03:34:21;13.40;77.20
76613;DHT22;65507;48.454;-2.058;2023-03-23T03:36:47;13.40;77.10
76613;DHT22;65507;48.454;-2.058;2023-03-23T03:39:14;13.40;77.20
76613;DHT22;65507;48.454;-2.058;2023-03-23T03:41:41;13.40;78.00
76613;DHT22;65507;48.454;-2.058;2023-03-23T03:44:07;13.40;77.20
76613;DHT22;65507;48.454;-2.058;2023-03-23T03:46:33;13.40;78.00
76613;DHT22;65507;48.454;-2.058;2023-03-23T03:48:59;13.40;77.10
76613;DHT22;65507;48.454;-2.058;2023-03-23T03:51:26;13.40;77.00
76613;DHT22;65507;48.454;-2.058;2023-03-23T03:53:51;13.40;77.10
76613;DHT22;65507;48.454;-2.058;2023-03-23T03:56:17;13.40;77.10
76613;DHT22;65507;48.454;-2.058;2023-03-23T03:58:43;13.40;77.10
76613;DHT22;65507;48.454;-2.058;2023-03-23T04:01:09;13.40;77.10
76613;DHT22;65507;48.454;-2.058;2023-03-23T04:03:35;13.40;77.10
76613;DHT22;65507;48.454;-2.058;2023-03-23T04:06:01;13.40;77.10
76613;DHT22;65507;48.454;-2.058;2023-03-23T04:08:27;13.40;77.20
76613;DHT22;65507;48.454;-2.058;2023-03-23T04:10:53;13.40;77.20
76613;DHT22;65507;48.454;-2.058;2023-03-23T04:13:19;13.40;77.20
76613;DHT22;65507;48.454;-2.058;2023-03-23T04:15:45;13.40;77.30
76613;DHT22;65507;48.454;-2.058;2023-03-23T04:18:14;13.40;77.30
76613;DHT22;65507;48.454;-2.058;2023-03-23T04:20:45;13.40;77.40
76613;DHT22;65507;48.454;-2.058;2023-03-23T04:23:16;13.40;77.40
76613;DHT22;65507;48.454;-2.058;2023-03-23T04:25:47;13.40;77.40
76613;DHT22;65507;48.454;-2.058;2023-03-23T04:28:13;13.30;77.50
76613;DHT22;65507;48.454;-2.058;2023-03-23T04:30:42;13.30;77.50
76613;DHT22;65507;48.454;-2.058;2023-03-23T04:33:08;13.30;77.50
76613;DHT22;65507;48.454;-2.058;2023-03-23T04:35:34;13.30;77.50
76613;DHT22;65507;48.454;-2.058;2023-03-23T04:37:59;13.30;77.50
76613;DHT22;65507;48.454;-2.058;2023-03-23T04:40:25;13.30;77.50
76613;DHT22;65507;48.454;-2.058;2023-03-23T04:42:51;13.30;77.60
76613;DHT22;65507;48.454;-2.058;2023-03-23T04:45:20;13.30;77.50
76613;DHT22;65507;48.454;-2.058;2023-03-23T04:47:49;13.30;77.50
76613;DHT22;65507;48.454;-2.058;2023-03-23T04:50:19;13.30;77.50
76613;DHT22;65507;48.454;-2.058;2023-03-23T04:52:45;13.30;77.50
76613;DHT22;65507;48.454;-2.058;2023-03-23T04:55:11;13.30;77.40
76613;DHT22;65507;48.454;-2.058;2023-03-23T04:57:37;13.30;77.30
76613;DHT22;65507;48.454;-2.058;2023-03-23T05:00:03;13.30;77.40
76613;DHT22;65507;48.454;-2.058;2023-03-23T05:02:37;13.30;77.40
76613;DHT22;65507;48.454;-2.058;2023-03-23T05:05:08;13.30;77.40
76613;DHT22;65507;48.454;-2.058;2023-03-23T05:07:33;13.30;77.40
76613;DHT22;65507;48.454;-2.058;2023-03-23T05:09:59;13.30;77.50
76613;DHT22;65507;48.454;-2.058;2023-03-23T05:12:25;13.30;77.40
76613;DHT22;65507;48.454;-2.058;2023-03-23T05:14:51;13.30;77.60
76613;DHT22;65507;48.454;-2.058;2023-03-23T05:17:17;13.30;77.50
76613;DHT22;65507;48.454;-2.058;2023-03-23T05:19:44;13.30;77.50
76613;DHT22;65507;48.454;-2.058;2023-03-23T05:22:15;13.30;77.40
76613;DHT22;65507;48.454;-2.058;2023-03-23T05:24:41;13.30;77.40
76613;DHT22;65507;48.454;-2.058;2023-03-23T05:27:09;13.30;77.50
76613;DHT22;65507;48.454;-2.058;2023-03-23T05:29:34;13.30;77.50
76613;DHT22;65507;48.454;-2.058;2023-03-23T05:32:04;13.30;77.50
76613;DHT22;65507;48.454;-2.058;2023-03-23T05:34:31;13.30;77.60
76613;DHT22;65507;48.454;-2.058;2023-03-23T05:36:58;13.20;77.50
76613;DHT22;65507;48.454;-2.058;2023-03-23T05:39:24;13.30;77.60
76613;DHT22;65507;48.454;-2.058;2023-03-23T05:41:50;13.20;77.50
76613;DHT22;65507;48.454;-2.058;2023-03-23T05:44:16;13.30;77.70
76613;DHT22;65507;48.454;-2.058;2023-03-23T05:46:41;13.30;77.60
76613;DHT22;65507;48.454;-2.058;2023-03-23T05:49:07;13.20;77.60
76613;DHT22;65507;48.454;-2.058;2023-03-23T05:51:32;13.20;77.50
76613;DHT22;65507;48.454;-2.058;2023-03-23T05:53:58;13.30;77.50
76613;DHT22;65507;48.454;-2.058;2023-03-23T05:56:24;13.30;77.50
76613;DHT22;65507;48.454;-2.058;2023-03-23T05:58:49;13.30;77.50
76613;DHT22;65507;48.454;-2.058;2023-03-23T06:01:15;13.30;77.50
76613;DHT22;65507;48.454;-2.058;2023-03-23T06:03:41;13.30;77.50
76613;DHT22;65507;48.454;-2.058;2023-03-23T06:06:09;13.20;77.50
76613;DHT22;65507;48.454;-2.058;2023-03-23T06:08:35;13.30;77.60
76613;DHT22;65507;48.454;-2.058;2023-03-23T06:11:02;13.20;77.50
76613;DHT22;65507;48.454;-2.058;2023-03-23T06:13:28;13.20;77.50
76613;DHT22;65507;48.454;-2.058;2023-03-23T06:15:56;13.20;77.60
76613;DHT22;65507;48.454;-2.058;2023-03-23T06:18:25;13.20;77.60
76613;DHT22;65507;48.454;-2.058;2023-03-23T06:20:51;13.20;77.50
76613;DHT22;65507;48.454;-2.058;2023-03-23T06:23:18;13.20;77.50
76613;DHT22;65507;48.454;-2.058;2023-03-23T06:25:44;13.20;77.90
76613;DHT22;65507;48.454;-2.058;2023-03-23T06:28:10;13.20;77.60
76613;DHT22;65507;48.454;-2.058;2023-03-23T06:30:36;13.20;77.70
76613;DHT22;65507;48.454;-2.058;2023-03-23T06:33:01;13.20;77.50
76613;DHT22;65507;48.454;-2.058;2023-03-23T06:35:31;13.20;77.50
76613;DHT22;65507;48.454;-2.058;2023-03-23T06:37:56;13.30;77.40
76613;DHT22;65507;48.454;-2.058;2023-03-23T06:40:23;13.30;77.60
76613;DHT22;65507;48.454;-2.058;2023-03-23T06:42:49;13.30;77.50
76613;DHT22;65507;48.454;-2.058;2023-03-23T06:45:14;13.30;77.30
76613;DHT22;65507;48.454;-2.058;2023-03-23T06:47:40;13.30;77.30
76613;DHT22;65507;48.454;-2.058;2023-03-23T06:50:06;13.40;77.30
76613;DHT22;65507;48.454;-2.058;2023-03-23T06:52:32;13.40;77.20
76613;DHT22;65507;48.454;-2.058;2023-03-23T06:54:58;13.40;77.20
76613;DHT22;65507;48.454;-2.058;2023-03-23T06:57:23;13.40;77.20
76613;DHT22;65507;48.454;-2.058;2023-03-23T06:59:49;13.50;77.20
76613;DHT22;65507;48.454;-2.058;2023-03-23T07:02:15;13.50;77.10
76613;DHT22;65507;48.454;-2.058;2023-03-23T07:04:40;13.50;77.10
76613;DHT22;65507;48.454;-2.058;2023-03-23T07:07:09;13.50;77.00
76613;DHT22;65507;48.454;-2.058;2023-03-23T07:09:36;13.50;77.00
76613;DHT22;65507;48.454;-2.058;2023-03-23T07:12:02;13.60;77.10
76613;DHT22;65507;48.454;-2.058;2023-03-23T07:14:28;13.60;77.00
76613;DHT22;65507;48.454;-2.058;2023-03-23T07:16:54;13.60;77.00
76613;DHT22;65507;48.454;-2.058;2023-03-23T07:19:19;13.60;76.90
76613;DHT22;65507;48.454;-2.058;2023-03-23T07:21:45;13.70;76.90
76613;DHT22;65507;48.454;-2.058;2023-03-23T07:24:12;13.70;76.90
76613;DHT22;65507;48.454;-2.058;2023-03-23T07:26:42;13.70;76.80
76613;DHT22;65507;48.454;-2.058;2023-03-23T07:29:10;13.80;76.70
76613;DHT22;65507;48.454;-2.058;2023-03-23T07:31:36;13.20;76.40
76613;DHT22;65507;48.454;-2.058;2023-03-23T07:34:02;13.90;76.70
76613;DHT22;65507;48.454;-2.058;2023-03-23T07:36:28;13.90;76.70
76613;DHT22;65507;48.454;-2.058;2023-03-23T07:38:54;14.00;76.60
76613;DHT22;65507;48.454;-2.058;2023-03-23T07:41:20;14.00;76.50
76613;DHT22;65507;48.454;-2.058;2023-03-23T07:43:46;14.10;76.50
76613;DHT22;65507;48.454;-2.058;2023-03-23T07:46:12;14.10;76.40
76613;DHT22;65507;48.454;-2.058;2023-03-23T07:48:38;14.10;76.40
76613;DHT22;65507;48.454;-2.058;2023-03-23T07:51:04;14.20;76.30
76613;DHT22;65507;48.454;-2.058;2023-03-23T07:53:30;14.20;76.30
76613;DHT22;65507;48.454;-2.058;2023-03-23T07:55:56;14.30;76.30
76613;DHT22;65507;48.454;-2.058;2023-03-23T07:58:22;14.30;76.20
76613;DHT22;65507;48.454;-2.058;2023-03-23T08:00:47;14.40;76.30
76613;DHT22;65507;48.454;-2.058;2023-03-23T08:03:14;14.40;76.20
76613;DHT22;65507;48.454;-2.058;2023-03-23T08:05:40;14.40;76.20
76613;DHT22;65507;48.454;-2.058;2023-03-23T08:08:07;14.40;76.10
76613;DHT22;65507;48.454;-2.058;2023-03-23T08:10:33;14.50;76.20
76613;DHT22;65507;48.454;-2.058;2023-03-23T08:12:58;14.50;76.20
76613;DHT22;65507;48.454;-2.058;2023-03-23T08:15:25;14.50;76.20
76613;DHT22;65507;48.454;-2.058;2023-03-23T08:17:51;14.60;76.20
76613;DHT22;65507;48.454;-2.058;2023-03-23T08:20:17;14.60;76.10
76613;DHT22;65507;48.454;-2.058;2023-03-23T08:22:52;14.60;76.20
76613;DHT22;65507;48.454;-2.058;2023-03-23T08:25:22;14.60;76.20
76613;DHT22;65507;48.454;-2.058;2023-03-23T08:27:49;14.70;76.30
76613;DHT22;65507;48.454;-2.058;2023-03-23T08:30:16;14.70;76.00
76613;DHT22;65507;48.454;-2.058;2023-03-23T08:32:42;14.70;76.00
76613;DHT22;65507;48.454;-2.058;2023-03-23T08:35:09;14.80;75.90
76613;DHT22;65507;48.454;-2.058;2023-03-23T08:37:36;14.90;75.80
76613;DHT22;65507;48.454;-2.058;2023-03-23T08:40:02;14.90;75.80
76613;DHT22;65507;48.454;-2.058;2023-03-23T08:42:37;14.90;75.70
76613;DHT22;65507;48.454;-2.058;2023-03-23T08:45:07;14.40;75.30
76613;DHT22;65507;48.454;-2.058;2023-03-23T08:47:33;14.90;75.70
76613;DHT22;65507;48.454;-2.058;2023-03-23T08:49:59;14.90;75.60
76613;DHT22;65507;48.454;-2.058;2023-03-23T08:52:25;15.00;75.70
76613;DHT22;65507;48.454;-2.058;2023-03-23T08:54:50;15.00;75.60
76613;DHT22;65507;48.454;-2.058;2023-03-23T08:57:16;15.20;75.50
76613;DHT22;65507;48.454;-2.058;2023-03-23T08:59:43;15.20;75.20
76613;DHT22;65507;48.454;-2.058;2023-03-23T09:02:12;15.30;75.10
76613;DHT22;65507;48.454;-2.058;2023-03-23T09:04:39;15.30;75.00
76613;DHT22;65507;48.454;-2.058;2023-03-23T09:07:05;15.40;74.90
76613;DHT22;65507;48.454;-2.058;2023-03-23T09:09:31;15.50;74.80
76613;DHT22;65507;48.454;-2.058;2023-03-23T09:11:57;15.50;74.80
76613;DHT22;65507;48.454;-2.058;2023-03-23T09:14:23;15.60;74.80
76613;DHT22;65507;48.454;-2.058;2023-03-23T09:16:48;15.60;74.80
76613;DHT22;65507;48.454;-2.058;2023-03-23T09:19:14;15.70;75.00
76613;DHT22;65507;48.454;-2.058;2023-03-23T09:21:40;15.60;74.90
76613;DHT22;65507;48.454;-2.058;2023-03-23T09:24:06;15.60;75.10
76613;DHT22;65507;48.454;-2.058;2023-03-23T09:26:32;15.70;75.00
76613;DHT22;65507;48.454;-2.058;2023-03-23T09:28:58;15.70;74.90
76613;DHT22;65507;48.454;-2.058;2023-03-23T09:31:23;15.70;74.80
76613;DHT22;65507;48.454;-2.058;2023-03-23T09:33:52;15.80;75.70
76613;DHT22;65507;48.454;-2.058;2023-03-23T09:36:18;15.80;74.70
76613;DHT22;65507;48.454;-2.058;2023-03-23T09:38:46;15.80;74.70
76613;DHT22;65507;48.454;-2.058;2023-03-23T09:46:41;15.90;74.40
76613;DHT22;65507;48.454;-2.058;2023-03-23T09:49:11;16.00;74.40
76613;DHT22;65507;48.454;-2.058;2023-03-23T09:51:49;16.00;74.30
76613;DHT22;65507;48.454;-2.058;2023-03-23T09:54:49;15.90;74.10
76613;DHT22;65507;48.454;-2.058;2023-03-23T09:57:28;16.20;74.20
76613;DHT22;65507;48.454;-2.058;2023-03-23T10:00:06;16.20;74.00
76613;DHT22;65507;48.454;-2.058;2023-03-23T10:05:35;16.30;73.70
76613;DHT22;65507;48.454;-2.058;2023-03-23T10:08:02;16.40;73.70
76613;DHT22;65507;48.454;-2.058;2023-03-23T10:10:32;16.40;73.80
76613;DHT22;65507;48.454;-2.058;2023-03-23T10:13:06;16.50;73.50
76613;DHT22;65507;48.454;-2.058;2023-03-23T10:15:36;16.50;73.40
76613;DHT22;65507;48.454;-2.058;2023-03-23T10:18:03;16.60;73.50
76613;DHT22;65507;48.454;-2.058;2023-03-23T10:20:32;16.50;73.40
76613;DHT22;65507;48.454;-2.058;2023-03-23T10:25:32;16.50;73.30
76613;DHT22;65507;48.454;-2.058;2023-03-23T10:28:05;16.50;73.50
76613;DHT22;65507;48.454;-2.058;2023-03-23T10:30:33;16.50;73.50
76613;DHT22;65507;48.454;-2.058;2023-03-23T10:33:02;16.50;73.60
76613;DHT22;65507;48.454;-2.058;2023-03-23T10:35:32;16.60;73.60
76613;DHT22;65507;48.454;-2.058;2023-03-23T10:38:02;16.70;73.30
76613;DHT22;65507;48.454;-2.058;2023-03-23T10:40:29;16.80;73.20
76613;DHT22;65507;48.454;-2.058;2023-03-23T10:42:55;16.80;73.00
76613;DHT22;65507;48.454;-2.058;2023-03-23T10:45:23;16.90;72.90
76613;DHT22;65507;48.454;-2.058;2023-03-23T10:50:18;16.80;73.20
76613;DHT22;65507;48.454;-2.058;2023-03-23T10:52:47;16.70;73.20
76613;DHT22;65507;48.454;-2.058;2023-03-23T10:55:22;16.60;73.40
76613;DHT22;65507;48.454;-2.058;2023-03-23T10:58:02;16.60;73.60
76613;DHT22;65507;48.454;-2.058;2023-03-23T11:00:28;16.50;73.70
76613;DHT22;65507;48.454;-2.058;2023-03-23T11:03:01;16.50;73.70
76613;DHT22;65507;48.454;-2.058;2023-03-23T11:06:18;16.50;73.60
76613;DHT22;65507;48.454;-2.058;2023-03-23T11:08:24;16.50;73.60
76613;DHT22;65507;48.454;-2.058;2023-03-23T11:10:51;16.50;73.50
76613;DHT22;65507;48.454;-2.058;2023-03-23T11:13:18;16.50;73.60
76613;DHT22;65507;48.454;-2.058;2023-03-23T11:15:46;16.50;73.80
76613;DHT22;65507;48.454;-2.058;2023-03-23T11:18:13;16.50;73.80
76613;DHT22;65507;48.454;-2.058;2023-03-23T11:20:44;16.50;73.70
76613;DHT22;65507;48.454;-2.058;2023-03-23T11:28:41;16.50;73.70
76613;DHT22;65507;48.454;-2.058;2023-03-23T11:31:08;16.50;73.70
76613;DHT22;65507;48.454;-2.058;2023-03-23T11:34:17;16.60;73.50
76613;DHT22;65507;48.454;-2.058;2023-03-23T11:36:28;16.70;73.40
76613;DHT22;65507;48.454;-2.058;2023-03-23T11:38:54;16.80;73.30
76613;DHT22;65507;48.454;-2.058;2023-03-23T11:41:31;16.80;73.30
76613;DHT22;65507;48.454;-2.058;2023-03-23T11:43:56;16.80;73.30
76613;DHT22;65507;48.454;-2.058;2023-03-23T11:46:46;16.80;73.40
76613;DHT22;65507;48.454;-2.058;2023-03-23T11:49:09;16.80;73.30
76613;DHT22;65507;48.454;-2.058;2023-03-23T11:51:39;16.70;73.50
76613;DHT22;65507;48.454;-2.058;2023-03-23T11:56:42;16.60;73.80
76613;DHT22;65507;48.454;-2.058;2023-03-23T11:59:09;16.60;74.30
76613;DHT22;65507;48.454;-2.058;2023-03-23T12:09:55;16.30;74.60
76613;DHT22;65507;48.454;-2.058;2023-03-23T12:12:38;16.20;74.80
76613;DHT22;65507;48.454;-2.058;2023-03-23T12:17:59;16.20;74.90
76613;DHT22;65507;48.454;-2.058;2023-03-23T12:43:59;17.20;72.70
76613;DHT22;65507;48.454;-2.058;2023-03-23T12:51:54;17.30;72.30
76613;DHT22;65507;48.454;-2.058;2023-03-23T12:54:23;17.40;72.30
76613;DHT22;65507;48.454;-2.058;2023-03-23T12:56:58;17.40;72.10
76613;DHT22;65507;48.454;-2.058;2023-03-23T13:00:02;17.60;72.00
76613;DHT22;65507;48.454;-2.058;2023-03-23T13:02:25;17.60;71.70
76613;DHT22;65507;48.454;-2.058;2023-03-23T13:04:54;17.70;71.50
76613;DHT22;65507;48.454;-2.058;2023-03-23T13:07:23;17.80;71.40
76613;DHT22;65507;48.454;-2.058;2023-03-23T13:10:05;17.90;71.10
76613;DHT22;65507;48.454;-2.058;2023-03-23T13:12:34;17.90;71.10
76613;DHT22;65507;48.454;-2.058;2023-03-23T13:15:09;17.90;71.10
76613;DHT22;65507;48.454;-2.058;2023-03-23T13:17:44;17.90;71.10
76613;DHT22;65507;48.454;-2.058;2023-03-23T13:28:01;17.60;71.50
76613;DHT22;65507;48.454;-2.058;2023-03-23T13:30:27;17.60;71.60
76613;DHT22;65507;48.454;-2.058;2023-03-23T13:33:01;17.60;71.70
76613;DHT22;65507;48.454;-2.058;2023-03-23T13:35:28;17.60;71.40
76613;DHT22;65507;48.454;-2.058;2023-03-23T13:37:57;17.60;71.50
76613;DHT22;65507;48.454;-2.058;2023-03-23T13:40:28;17.60;71.30
76613;DHT22;65507;48.454;-2.058;2023-03-23T13:42:55;17.60;71.30
76613;DHT22;65507;48.454;-2.058;2023-03-23T13:45:36;17.60;71.30
76613;DHT22;65507;48.454;-2.058;2023-03-23T13:50:48;16.60;70.70
76613;DHT22;65507;48.454;-2.058;2023-03-23T13:53:15;17.50;71.40
76613;DHT22;65507;48.454;-2.058;2023-03-23T13:55:50;17.60;71.40
76613;DHT22;65507;48.454;-2.058;2023-03-23T13:58:25;17.50;71.10
76613;DHT22;65507;48.454;-2.058;2023-03-23T14:01:08;17.60;71.00
76613;DHT22;65507;48.454;-2.058;2023-03-23T14:03:36;17.60;71.00
76613;DHT22;65507;48.454;-2.058;2023-03-23T14:06:04;17.50;71.10
76613;DHT22;65507;48.454;-2.058;2023-03-23T14:16:13;17.30;71.40
76613;DHT22;65507;48.454;-2.058;2023-03-23T14:18:40;17.20;71.50
76613;DHT22;65507;48.454;-2.058;2023-03-23T14:21:13;17.10;71.40
76613;DHT22;65507;48.454;-2.058;2023-03-23T14:23:39;17.10;71.50
76613;DHT22;65507;48.454;-2.058;2023-03-23T14:26:10;17.00;71.30
76613;DHT22;65507;48.454;-2.058;2023-03-23T14:28:37;17.00;71.30
76613;DHT22;65507;48.454;-2.058;2023-03-23T14:31:03;16.90;71.10
76613;DHT22;65507;48.454;-2.058;2023-03-23T14:33:29;16.80;71.10
76613;DHT22;65507;48.454;-2.058;2023-03-23T14:35:56;16.80;71.20
76613;DHT22;65507;48.454;-2.058;2023-03-23T14:38:23;16.80;71.10
76613;DHT22;65507;48.454;-2.058;2023-03-23T14:40:52;16.80;71.00
76613;DHT22;65507;48.454;-2.058;2023-03-23T14:43:18;16.70;71.10
76613;DHT22;65507;48.454;-2.058;2023-03-23T14:45:51;16.70;71.10
76613;DHT22;65507;48.454;-2.058;2023-03-23T14:48:16;16.70;71.30
76613;DHT22;65507;48.454;-2.058;2023-03-23T14:50:48;16.60;71.40
76613;DHT22;65507;48.454;-2.058;2023-03-23T14:56:00;16.50;71.80
76613;DHT22;65507;48.454;-2.058;2023-03-23T14:58:27;16.40;72.00
76613;DHT22;65507;48.454;-2.058;2023-03-23T15:01:04;16.30;72.20
76613;DHT22;65507;48.454;-2.058;2023-03-23T15:03:34;16.20;72.40
76613;DHT22;65507;48.454;-2.058;2023-03-23T15:06:02;16.10;72.70
76613;DHT22;65507;48.454;-2.058;2023-03-23T15:08:33;16.00;72.90
76613;DHT22;65507;48.454;-2.058;2023-03-23T15:11:06;15.90;73.20
76613;DHT22;65507;48.454;-2.058;2023-03-23T15:13:33;15.70;73.40
76613;DHT22;65507;48.454;-2.058;2023-03-23T15:16:06;15.60;73.50
76613;DHT22;65507;48.454;-2.058;2023-03-23T15:18:37;15.60;73.60
76613;DHT22;65507;48.454;-2.058;2023-03-23T15:21:10;15.60;73.60
76613;DHT22;65507;48.454;-2.058;2023-03-23T15:23:40;15.50;73.50
76613;DHT22;65507;48.454;-2.058;2023-03-23T15:26:18;15.50;73.50
76613;DHT22;65507;48.454;-2.058;2023-03-23T15:28:44;15.50;73.70
76613;DHT22;65507;48.454;-2.058;2023-03-23T15:31:10;15.40;73.70
76613;DHT22;65507;48.454;-2.058;2023-03-23T15:33:36;15.40;73.80
76613;DHT22;65507;48.454;-2.058;2023-03-23T15:36:06;15.30;73.90
76613;DHT22;65507;48.454;-2.058;2023-03-23T15:38:35;15.20;74.10
76613;DHT22;65507;48.454;-2.058;2023-03-23T15:41:02;15.00;74.30
76613;DHT22;65507;48.454;-2.058;2023-03-23T15:43:35;14.90;74.50
76613;DHT22;65507;48.454;-2.058;2023-03-23T15:48:46;14.70;74.80
76613;DHT22;65507;48.454;-2.058;2023-03-23T15:51:13;15.10;75.30
76613;DHT22;65507;48.454;-2.058;2023-03-23T15:53:39;14.40;75.10
76613;DHT22;65507;48.454;-2.058;2023-03-23T15:56:05;14.20;75.30
76613;DHT22;65507;48.454;-2.058;2023-03-23T15:58:31;15.70;76.30
76613;DHT22;65507;48.454;-2.058;2023-03-23T16:00:57;14.10;75.50
76613;DHT22;65507;48.454;-2.058;2023-03-23T16:03:58;14.10;75.60
76613;DHT22;65507;48.454;-2.058;2023-03-23T16:06:16;14.00;75.50
76613;DHT22;65507;48.454;-2.058;2023-03-23T16:08:42;14.00;75.80
76613;DHT22;65507;48.454;-2.058;2023-03-23T16:11:14;14.00;75.70
76613;DHT22;65507;48.454;-2.058;2023-03-23T16:13:41;14.10;75.60
76613;DHT22;65507;48.454;-2.058;2023-03-23T16:16:10;14.10;75.50
76613;DHT22;65507;48.454;-2.058;2023-03-23T16:18:38;14.10;75.40
76613;DHT22;65507;48.454;-2.058;2023-03-23T16:21:03;14.10;75.50
76613;DHT22;65507;48.454;-2.058;2023-03-23T16:23:29;14.10;75.50
76613;DHT22;65507;48.454;-2.058;2023-03-23T16:25:54;14.10;75.40
76613;DHT22;65507;48.454;-2.058;2023-03-23T16:28:20;14.20;75.30
76613;DHT22;65507;48.454;-2.058;2023-03-23T16:30:46;14.20;75.40
76613;DHT22;65507;48.454;-2.058;2023-03-23T16:33:11;14.20;75.40
76613;DHT22;65507;48.454;-2.058;2023-03-23T16:35:37;14.10;75.40
76613;DHT22;65507;48.454;-2.058;2023-03-23T16:38:03;14.10;75.50
76613;DHT22;65507;48.454;-2.058;2023-03-23T16:40:28;14.10;75.50
76613;DHT22;65507;48.454;-2.058;2023-03-23T16:42:54;14.10;75.50
76613;DHT22;65507;48.454;-2.058;2023-03-23T16:45:19;14.10;75.60
76613;DHT22;65507;48.454;-2.058;2023-03-23T16:47:45;14.10;75.60
76613;DHT22;65507;48.454;-2.058;2023-03-23T16:50:12;14.10;75.70
76613;DHT22;65507;48.454;-2.058;2023-03-23T16:52:38;14.10;75.80
76613;DHT22;65507;48.454;-2.058;2023-03-23T16:55:04;14.10;75.80
76613;DHT22;65507;48.454;-2.058;2023-03-23T16:57:31;14.10;75.80
76613;DHT22;65507;48.454;-2.058;2023-03-23T16:59:56;14.10;75.80
76613;DHT22;65507;48.454;-2.058;2023-03-23T17:02:25;14.10;75.90
76613;DHT22;65507;48.454;-2.058;2023-03-23T17:04:50;14.10;76.10
76613;DHT22;65507;48.454;-2.058;2023-03-23T17:07:16;14.10;76.10
76613;DHT22;65507;48.454;-2.058;2023-03-23T17:09:42;12.50;75.80
76613;DHT22;65507;48.454;-2.058;2023-03-23T17:12:07;14.00;76.20